Arena, Wisconsin
Current Conditions -  °F | °C
As of 10:56 PM on Friday 19 Dec 2014 (Local Time) from KLNR Reporting Station
Overcast Overcast  
Wind Chill: 24°   Ceiling: 3800
Heat Index: 30°   Visibility: 10mi
Dew Point: 22°   Wind: 6mph
Humidity: 72%   Direction: 100°E
Pressure: 30.26"   Gusts: NA
Location:  43.17°N, 89.91°W
Report Text: KLNR 200456Z AUTO 10005KT 10SM OVC038 M01/M06 A3026 RMK AO2 SLP252 T10111056
Loading
Personal Weather Stations






























Interactive Weather Map New forecast layout! Learn more

10-Day Weather Forecast

Advertisements
Track Severe Weather on mobile